Balikesir Edremit Korfez Airport Edremit TR
ICAO: LTFD
IATA: EDO
Category: Medium
Scheduled Services: Yes

Elevation: 50 ft
TransAlt. 10000 ft.

Airport Communications:
SAR:123.1
GND:121.9
TWR:119.7

LTFD Zoom In..

If you have problems with the map follow the link
https://www.worldairports.se/pages/airport.php?
ICAO=LTFD

Runways:

(A) RW 05 length 9843 ft width 148 ft
ILS 108.90 / hdg 50

(B) RW 23 length 9843 ft width 148 ft
---- / hdg 230

Location; LTFD
Day. 22 / Time. 11.50 Zulu
* QNH: 1016
* Temperature: 22° c. 71.6°f.
* Wind from: 060° Speed 17 kn.
Dewpoint: 12° c.
Visibility: 10 km or more.
Clouds: Scattered 3500 ft.

LTFD 221150Z 06017KT 9999 SCT035 22/12 Q1016


Wind From 060°
Speed 17 kn.

 
 
jpsmedia.com for Web Design worldairports.se 2018   terms of use